sensor_id;sensor_type;location;lat;lon;timestamp;P1;durP1;ratioP1;P2;durP2;ratioP2
56728;SDS011;42612;52.232;7.560;2023-03-01T00:00:15;5.68;;;3.70;;
56728;SDS011;42612;52.232;7.560;2023-03-01T00:02:41;4.32;;;3.20;;
56728;SDS011;42612;52.232;7.560;2023-03-01T00:05:07;6.03;;;3.75;;
56728;SDS011;42612;52.232;7.560;2023-03-01T00:07:33;7.35;;;3.30;;
56728;SDS011;42612;52.232;7.560;2023-03-01T00:09:58;6.70;;;3.67;;
56728;SDS011;42612;52.232;7.560;2023-03-01T00:12:24;6.03;;;3.83;;
56728;SDS011;42612;52.232;7.560;2023-03-01T00:14:50;5.20;;;3.70;;
56728;SDS011;42612;52.232;7.560;2023-03-01T00:17:15;6.45;;;4.18;;
56728;SDS011;42612;52.232;7.560;2023-03-01T00:19:42;4.13;;;3.03;;
56728;SDS011;42612;52.232;7.560;2023-03-01T00:22:07;7.45;;;3.92;;
56728;SDS011;42612;52.232;7.560;2023-03-01T00:24:33;6.03;;;3.70;;
56728;SDS011;42612;52.232;7.560;2023-03-01T00:26:59;5.28;;;3.88;;
56728;SDS011;42612;52.232;7.560;2023-03-01T00:29:24;3.92;;;3.28;;
56728;SDS011;42612;52.232;7.560;2023-03-01T00:31:50;7.20;;;3.60;;
56728;SDS011;42612;52.232;7.560;2023-03-01T00:34:16;6.00;;;3.22;;
56728;SDS011;42612;52.232;7.560;2023-03-01T00:36:42;3.88;;;3.05;;
56728;SDS011;42612;52.232;7.560;2023-03-01T00:39:10;6.57;;;4.35;;
56728;SDS011;42612;52.232;7.560;2023-03-01T00:41:38;6.07;;;3.75;;
56728;SDS011;42612;52.232;7.560;2023-03-01T00:44:05;4.95;;;3.28;;
56728;SDS011;42612;52.232;7.560;2023-03-01T00:46:30;4.82;;;3.67;;
56728;SDS011;42612;52.232;7.560;2023-03-01T00:48:56;5.53;;;3.60;;
56728;SDS011;42612;52.232;7.560;2023-03-01T00:51:23;5.65;;;4.15;;
56728;SDS011;42612;52.232;7.560;2023-03-01T00:53:52;9.32;;;5.18;;
56728;SDS011;42612;52.232;7.560;2023-03-01T00:56:20;6.47;;;3.63;;
56728;SDS011;42612;52.232;7.560;2023-03-01T00:58:46;6.38;;;4.18;;
56728;SDS011;42612;52.232;7.560;2023-03-01T01:01:13;5.88;;;3.80;;
56728;SDS011;42612;52.232;7.560;2023-03-01T01:03:52;6.05;;;3.47;;
56728;SDS011;42612;52.232;7.560;2023-03-01T01:06:23;4.70;;;3.58;;
56728;SDS011;42612;52.232;7.560;2023-03-01T01:08:57;5.40;;;3.97;;
56728;SDS011;42612;52.232;7.560;2023-03-01T01:11:26;8.48;;;4.10;;
56728;SDS011;42612;52.232;7.560;2023-03-01T01:13:54;9.85;;;4.30;;
56728;SDS011;42612;52.232;7.560;2023-03-01T01:16:21;5.80;;;3.67;;
56728;SDS011;42612;52.232;7.560;2023-03-01T01:18:49;5.57;;;4.10;;
56728;SDS011;42612;52.232;7.560;2023-03-01T01:21:16;8.00;;;3.78;;
56728;SDS011;42612;52.232;7.560;2023-03-01T01:23:44;5.90;;;4.18;;
56728;SDS011;42612;52.232;7.560;2023-03-01T01:26:16;4.78;;;3.75;;
56728;SDS011;42612;52.232;7.560;2023-03-01T01:28:45;6.10;;;3.83;;
56728;SDS011;42612;52.232;7.560;2023-03-01T01:31:11;6.13;;;3.92;;
56728;SDS011;42612;52.232;7.560;2023-03-01T01:33:38;5.60;;;3.78;;
56728;SDS011;42612;52.232;7.560;2023-03-01T01:36:04;4.68;;;3.30;;
56728;SDS011;42612;52.232;7.560;2023-03-01T01:38:31;5.45;;;3.30;;
56728;SDS011;42612;52.232;7.560;2023-03-01T01:40:57;4.75;;;3.40;;
56728;SDS011;42612;52.232;7.560;2023-03-01T01:46:15;7.53;;;3.50;;
56728;SDS011;42612;52.232;7.560;2023-03-01T01:48:58;5.45;;;3.45;;
56728;SDS011;42612;52.232;7.560;2023-03-01T01:51:36;4.05;;;3.33;;
56728;SDS011;42612;52.232;7.560;2023-03-01T01:54:07;5.35;;;3.22;;
56728;SDS011;42612;52.232;7.560;2023-03-01T01:56:37;5.93;;;3.40;;
56728;SDS011;42612;52.232;7.560;2023-03-01T01:59:06;4.38;;;3.55;;
56728;SDS011;42612;52.232;7.560;2023-03-01T02:01:32;5.00;;;3.50;;
56728;SDS011;42612;52.232;7.560;2023-03-01T02:03:57;5.65;;;3.63;;
56728;SDS011;42612;52.232;7.560;2023-03-01T02:06:28;4.72;;;3.35;;
56728;SDS011;42612;52.232;7.560;2023-03-01T02:09:00;5.25;;;2.88;;
56728;SDS011;42612;52.232;7.560;2023-03-01T02:11:32;5.45;;;3.58;;
56728;SDS011;42612;52.232;7.560;2023-03-01T02:13:58;5.40;;;3.63;;
56728;SDS011;42612;52.232;7.560;2023-03-01T02:16:25;5.03;;;3.25;;
56728;SDS011;42612;52.232;7.560;2023-03-01T02:18:51;9.05;;;3.70;;
56728;SDS011;42612;52.232;7.560;2023-03-01T02:24:14;5.07;;;3.17;;
56728;SDS011;42612;52.232;7.560;2023-03-01T02:26:45;4.57;;;3.15;;
56728;SDS011;42612;52.232;7.560;2023-03-01T02:29:15;6.00;;;3.45;;
56728;SDS011;42612;52.232;7.560;2023-03-01T02:31:41;4.95;;;3.75;;
56728;SDS011;42612;52.232;7.560;2023-03-01T02:34:07;4.55;;;3.42;;
56728;SDS011;42612;52.232;7.560;2023-03-01T02:36:39;6.03;;;3.58;;
56728;SDS011;42612;52.232;7.560;2023-03-01T02:39:12;5.43;;;3.47;;
56728;SDS011;42612;52.232;7.560;2023-03-01T02:41:44;5.97;;;4.07;;
56728;SDS011;42612;52.232;7.560;2023-03-01T02:44:14;4.82;;;3.83;;
56728;SDS011;42612;52.232;7.560;2023-03-01T02:46:45;5.78;;;3.67;;
56728;SDS011;42612;52.232;7.560;2023-03-01T02:55:06;4.38;;;2.85;;
56728;SDS011;42612;52.232;7.560;2023-03-01T02:57:37;6.28;;;3.88;;
56728;SDS011;42612;52.232;7.560;2023-03-01T03:00:11;5.35;;;4.00;;
56728;SDS011;42612;52.232;7.560;2023-03-01T03:02:47;5.55;;;3.55;;
56728;SDS011;42612;52.232;7.560;2023-03-01T03:05:17;6.75;;;3.97;;
56728;SDS011;42612;52.232;7.560;2023-03-01T03:07:46;5.15;;;4.07;;
56728;SDS011;42612;52.232;7.560;2023-03-01T03:10:15;7.25;;;3.58;;
56728;SDS011;42612;52.232;7.560;2023-03-01T03:12:57;6.88;;;3.55;;
56728;SDS011;42612;52.232;7.560;2023-03-01T03:15:27;5.03;;;3.63;;
56728;SDS011;42612;52.232;7.560;2023-03-01T03:17:54;4.85;;;3.88;;
56728;SDS011;42612;52.232;7.560;2023-03-01T03:20:23;6.22;;;3.90;;
56728;SDS011;42612;52.232;7.560;2023-03-01T03:22:53;4.82;;;3.60;;
56728;SDS011;42612;52.232;7.560;2023-03-01T03:27:48;5.50;;;3.33;;
56728;SDS011;42612;52.232;7.560;2023-03-01T03:30:21;6.22;;;3.60;;
56728;SDS011;42612;52.232;7.560;2023-03-01T03:32:55;4.30;;;3.75;;
56728;SDS011;42612;52.232;7.560;2023-03-01T03:35:23;4.95;;;3.60;;
56728;SDS011;42612;52.232;7.560;2023-03-01T03:37:58;6.22;;;3.65;;
56728;SDS011;42612;52.232;7.560;2023-03-01T03:40:27;5.00;;;3.30;;
56728;SDS011;42612;52.232;7.560;2023-03-01T03:42:55;7.30;;;3.92;;
56728;SDS011;42612;52.232;7.560;2023-03-01T03:45:21;5.47;;;3.55;;
56728;SDS011;42612;52.232;7.560;2023-03-01T03:47:47;4.85;;;3.33;;
56728;SDS011;42612;52.232;7.560;2023-03-01T03:50:14;4.53;;;3.60;;
56728;SDS011;42612;52.232;7.560;2023-03-01T03:52:41;4.90;;;3.80;;
56728;SDS011;42612;52.232;7.560;2023-03-01T03:55:08;5.57;;;4.10;;
56728;SDS011;42612;52.232;7.560;2023-03-01T03:57:36;7.20;;;3.83;;
56728;SDS011;42612;52.232;7.560;2023-03-01T04:00:09;5.90;;;3.45;;
56728;SDS011;42612;52.232;7.560;2023-03-01T04:02:41;4.32;;;3.20;;
56728;SDS011;42612;52.232;7.560;2023-03-01T04:05:08;4.80;;;3.10;;
56728;SDS011;42612;52.232;7.560;2023-03-01T04:07:37;6.93;;;4.30;;
56728;SDS011;42612;52.232;7.560;2023-03-01T04:10:04;5.88;;;3.85;;
56728;SDS011;42612;52.232;7.560;2023-03-01T04:12:33;4.47;;;3.10;;
56728;SDS011;42612;52.232;7.560;2023-03-01T04:15:00;6.00;;;4.13;;
56728;SDS011;42612;52.232;7.560;2023-03-01T04:17:26;7.75;;;3.97;;
56728;SDS011;42612;52.232;7.560;2023-03-01T04:19:52;6.82;;;3.65;;
56728;SDS011;42612;52.232;7.560;2023-03-01T04:22:18;5.68;;;4.00;;
56728;SDS011;42612;52.232;7.560;2023-03-01T04:24:44;7.72;;;3.45;;
56728;SDS011;42612;52.232;7.560;2023-03-01T04:27:10;6.07;;;3.55;;
56728;SDS011;42612;52.232;7.560;2023-03-01T04:29:36;6.30;;;3.80;;
56728;SDS011;42612;52.232;7.560;2023-03-01T04:32:02;4.40;;;3.75;;
56728;SDS011;42612;52.232;7.560;2023-03-01T04:34:28;6.43;;;3.85;;
56728;SDS011;42612;52.232;7.560;2023-03-01T04:36:55;5.65;;;3.75;;
56728;SDS011;42612;52.232;7.560;2023-03-01T04:39:20;6.43;;;3.28;;
56728;SDS011;42612;52.232;7.560;2023-03-01T04:41:46;5.22;;;3.55;;
56728;SDS011;42612;52.232;7.560;2023-03-01T04:44:12;4.55;;;3.55;;
56728;SDS011;42612;52.232;7.560;2023-03-01T04:46:38;6.25;;;4.22;;
56728;SDS011;42612;52.232;7.560;2023-03-01T04:49:04;7.97;;;3.55;;
56728;SDS011;42612;52.232;7.560;2023-03-01T04:51:30;5.40;;;3.67;;
56728;SDS011;42612;52.232;7.560;2023-03-01T04:53:57;5.03;;;3.38;;
56728;SDS011;42612;52.232;7.560;2023-03-01T04:56:23;6.90;;;3.50;;
56728;SDS011;42612;52.232;7.560;2023-03-01T04:58:49;4.65;;;3.45;;
56728;SDS011;42612;52.232;7.560;2023-03-01T05:01:19;4.53;;;3.55;;
56728;SDS011;42612;52.232;7.560;2023-03-01T05:03:49;4.50;;;3.35;;
56728;SDS011;42612;52.232;7.560;2023-03-01T05:06:17;5.35;;;3.72;;
56728;SDS011;42612;52.232;7.560;2023-03-01T05:11:10;4.88;;;3.65;;
56728;SDS011;42612;52.232;7.560;2023-03-01T05:13:37;4.72;;;3.22;;
56728;SDS011;42612;52.232;7.560;2023-03-01T05:16:04;5.25;;;3.63;;
56728;SDS011;42612;52.232;7.560;2023-03-01T05:18:35;6.70;;;3.85;;
56728;SDS011;42612;52.232;7.560;2023-03-01T05:21:02;7.72;;;4.40;;
56728;SDS011;42612;52.232;7.560;2023-03-01T05:23:37;6.05;;;3.83;;
56728;SDS011;42612;52.232;7.560;2023-03-01T05:26:04;6.40;;;3.70;;
56728;SDS011;42612;52.232;7.560;2023-03-01T05:30:57;5.13;;;3.30;;
56728;SDS011;42612;52.232;7.560;2023-03-01T05:33:24;3.85;;;2.88;;
56728;SDS011;42612;52.232;7.560;2023-03-01T05:35:50;4.93;;;3.40;;
56728;SDS011;42612;52.232;7.560;2023-03-01T05:38:18;5.13;;;3.53;;
56728;SDS011;42612;52.232;7.560;2023-03-01T05:40:45;4.82;;;3.63;;
56728;SDS011;42612;52.232;7.560;2023-03-01T05:43:13;6.40;;;3.65;;
56728;SDS011;42612;52.232;7.560;2023-03-01T05:45:41;6.20;;;4.10;;
56728;SDS011;42612;52.232;7.560;2023-03-01T05:48:08;5.03;;;3.50;;
56728;SDS011;42612;52.232;7.560;2023-03-01T05:53:05;5.55;;;3.75;;
56728;SDS011;42612;52.232;7.560;2023-03-01T05:55:42;6.60;;;3.85;;
56728;SDS011;42612;52.232;7.560;2023-03-01T05:58:13;7.55;;;3.80;;
56728;SDS011;42612;52.232;7.560;2023-03-01T06:00:42;6.43;;;3.63;;
56728;SDS011;42612;52.232;7.560;2023-03-01T06:03:10;6.88;;;3.95;;
56728;SDS011;42612;52.232;7.560;2023-03-01T06:05:38;6.75;;;3.80;;
56728;SDS011;42612;52.232;7.560;2023-03-01T06:08:04;6.10;;;3.70;;
56728;SDS011;42612;52.232;7.560;2023-03-01T06:10:31;5.15;;;3.80;;
56728;SDS011;42612;52.232;7.560;2023-03-01T06:12:57;6.15;;;4.22;;
56728;SDS011;42612;52.232;7.560;2023-03-01T06:15:23;15.32;;;4.40;;
56728;SDS011;42612;52.232;7.560;2023-03-01T06:17:49;5.93;;;4.30;;
56728;SDS011;42612;52.232;7.560;2023-03-01T06:22:44;4.72;;;3.25;;
56728;SDS011;42612;52.232;7.560;2023-03-01T06:25:12;5.30;;;3.72;;
56728;SDS011;42612;52.232;7.560;2023-03-01T06:27:41;4.72;;;3.47;;
56728;SDS011;42612;52.232;7.560;2023-03-01T06:30:07;10.13;;;4.93;;
56728;SDS011;42612;52.232;7.560;2023-03-01T06:32:35;11.30;;;6.53;;
56728;SDS011;42612;52.232;7.560;2023-03-01T06:35:02;6.07;;;4.05;;
56728;SDS011;42612;52.232;7.560;2023-03-01T06:37:29;7.53;;;4.43;;
56728;SDS011;42612;52.232;7.560;2023-03-01T06:39:55;67.90;;;27.02;;
56728;SDS011;42612;52.232;7.560;2023-03-01T06:42:20;98.65;;;35.75;;
56728;SDS011;42612;52.232;7.560;2023-03-01T06:44:46;123.25;;;42.30;;
56728;SDS011;42612;52.232;7.560;2023-03-01T06:47:12;125.82;;;39.38;;
56728;SDS011;42612;52.232;7.560;2023-03-01T06:49:38;74.90;;;26.98;;
56728;SDS011;42612;52.232;7.560;2023-03-01T06:52:03;75.05;;;26.88;;
56728;SDS011;42612;52.232;7.560;2023-03-01T06:54:31;23.02;;;8.55;;
56728;SDS011;42612;52.232;7.560;2023-03-01T06:59:22;16.42;;;7.20;;
56728;SDS011;42612;52.232;7.560;2023-03-01T07:01:48;13.18;;;5.68;;
56728;SDS011;42612;52.232;7.560;2023-03-01T07:04:14;13.93;;;6.22;;
56728;SDS011;42612;52.232;7.560;2023-03-01T07:06:39;8.45;;;4.78;;
56728;SDS011;42612;52.232;7.560;2023-03-01T07:09:05;7.25;;;4.28;;
56728;SDS011;42612;52.232;7.560;2023-03-01T07:11:31;7.80;;;4.38;;
56728;SDS011;42612;52.232;7.560;2023-03-01T07:13:58;7.53;;;3.97;;
56728;SDS011;42612;52.232;7.560;2023-03-01T07:16:24;7.45;;;3.53;;
56728;SDS011;42612;52.232;7.560;2023-03-01T07:18:50;6.65;;;3.72;;
56728;SDS011;42612;52.232;7.560;2023-03-01T07:21:16;9.20;;;4.07;;
56728;SDS011;42612;52.232;7.560;2023-03-01T07:23:42;5.15;;;3.72;;
56728;SDS011;42612;52.232;7.560;2023-03-01T07:26:08;5.75;;;4.03;;
56728;SDS011;42612;52.232;7.560;2023-03-01T07:28:33;5.85;;;3.95;;
56728;SDS011;42612;52.232;7.560;2023-03-01T07:31:01;5.80;;;3.78;;
56728;SDS011;42612;52.232;7.560;2023-03-01T07:33:27;4.22;;;3.10;;
56728;SDS011;42612;52.232;7.560;2023-03-01T07:35:57;6.28;;;4.07;;
56728;SDS011;42612;52.232;7.560;2023-03-01T07:38:24;5.10;;;3.50;;
56728;SDS011;42612;52.232;7.560;2023-03-01T07:40:51;5.15;;;4.22;;
56728;SDS011;42612;52.232;7.560;2023-03-01T07:43:17;7.25;;;3.63;;
56728;SDS011;42612;52.232;7.560;2023-03-01T07:45:43;7.93;;;3.60;;
56728;SDS011;42612;52.232;7.560;2023-03-01T07:48:09;6.57;;;3.78;;
56728;SDS011;42612;52.232;7.560;2023-03-01T07:50:35;11.38;;;4.70;;
56728;SDS011;42612;52.232;7.560;2023-03-01T07:53:00;6.78;;;3.80;;
56728;SDS011;42612;52.232;7.560;2023-03-01T07:55:27;6.18;;;4.15;;
56728;SDS011;42612;52.232;7.560;2023-03-01T07:57:53;7.97;;;4.15;;
56728;SDS011;42612;52.232;7.560;2023-03-01T08:00:18;8.60;;;4.53;;
56728;SDS011;42612;52.232;7.560;2023-03-01T08:02:44;5.35;;;4.43;;
56728;SDS011;42612;52.232;7.560;2023-03-01T08:05:10;7.68;;;4.57;;
56728;SDS011;42612;52.232;7.560;2023-03-01T08:07:36;6.70;;;4.57;;
56728;SDS011;42612;52.232;7.560;2023-03-01T08:10:02;10.30;;;4.25;;
56728;SDS011;42612;52.232;7.560;2023-03-01T08:12:28;6.88;;;3.85;;
56728;SDS011;42612;52.232;7.560;2023-03-01T08:14:54;7.15;;;3.90;;
56728;SDS011;42612;52.232;7.560;2023-03-01T08:17:20;5.50;;;4.22;;
56728;SDS011;42612;52.232;7.560;2023-03-01T08:19:46;8.18;;;4.20;;
56728;SDS011;42612;52.232;7.560;2023-03-01T08:22:11;7.57;;;4.32;;
56728;SDS011;42612;52.232;7.560;2023-03-01T08:24:37;6.70;;;4.00;;
56728;SDS011;42612;52.232;7.560;2023-03-01T08:27:03;6.90;;;4.25;;
56728;SDS011;42612;52.232;7.560;2023-03-01T08:29:32;6.25;;;3.80;;
56728;SDS011;42612;52.232;7.560;2023-03-01T08:31:59;5.13;;;3.58;;
56728;SDS011;42612;52.232;7.560;2023-03-01T08:34:25;6.65;;;4.43;;
56728;SDS011;42612;52.232;7.560;2023-03-01T08:36:51;6.00;;;3.88;;
56728;SDS011;42612;52.232;7.560;2023-03-01T08:39:17;7.63;;;3.85;;
56728;SDS011;42612;52.232;7.560;2023-03-01T08:44:11;5.93;;;3.42;;
56728;SDS011;42612;52.232;7.560;2023-03-01T08:49:07;4.82;;;3.63;;
56728;SDS011;42612;52.232;7.560;2023-03-01T08:51:38;6.75;;;3.67;;
56728;SDS011;42612;52.232;7.560;2023-03-01T08:54:05;7.32;;;3.83;;
56728;SDS011;42612;52.232;7.560;2023-03-01T08:56:36;7.05;;;3.10;;
56728;SDS011;42612;52.232;7.560;2023-03-01T08:59:02;4.55;;;3.25;;
56728;SDS011;42612;52.232;7.560;2023-03-01T09:01:27;5.55;;;3.20;;
56728;SDS011;42612;52.232;7.560;2023-03-01T09:03:53;4.47;;;3.08;;
56728;SDS011;42612;52.232;7.560;2023-03-01T09:06:19;7.38;;;3.28;;
56728;SDS011;42612;52.232;7.560;2023-03-01T09:08:46;8.15;;;3.88;;
56728;SDS011;42612;52.232;7.560;2023-03-01T09:11:14;6.72;;;3.67;;
56728;SDS011;42612;52.232;7.560;2023-03-01T09:13:43;6.50;;;3.72;;
56728;SDS011;42612;52.232;7.560;2023-03-01T09:16:11;4.38;;;3.08;;
56728;SDS011;42612;52.232;7.560;2023-03-01T09:18:39;5.32;;;3.85;;
56728;SDS011;42612;52.232;7.560;2023-03-01T09:21:06;4.68;;;3.03;;
56728;SDS011;42612;52.232;7.560;2023-03-01T09:23:37;5.25;;;3.72;;
56728;SDS011;42612;52.232;7.560;2023-03-01T09:26:07;6.60;;;4.10;;
56728;SDS011;42612;52.232;7.560;2023-03-01T09:28:38;9.52;;;5.30;;
56728;SDS011;42612;52.232;7.560;2023-03-01T09:33:32;5.20;;;3.20;;
56728;SDS011;42612;52.232;7.560;2023-03-01T09:35:59;4.03;;;3.13;;
56728;SDS011;42612;52.232;7.560;2023-03-01T09:38:27;4.95;;;2.92;;
56728;SDS011;42612;52.232;7.560;2023-03-01T09:40:53;5.18;;;3.33;;
56728;SDS011;42612;52.232;7.560;2023-03-01T09:46:08;5.68;;;2.95;;
56728;SDS011;42612;52.232;7.560;2023-03-01T09:48:41;8.75;;;2.72;;
56728;SDS011;42612;52.232;7.560;2023-03-01T09:51:34;4.30;;;2.83;;
56728;SDS011;42612;52.232;7.560;2023-03-01T09:54:05;5.30;;;3.03;;
56728;SDS011;42612;52.232;7.560;2023-03-01T09:59:13;7.15;;;4.03;;
56728;SDS011;42612;52.232;7.560;2023-03-01T10:05:03;4.97;;;3.50;;
56728;SDS011;42612;52.232;7.560;2023-03-01T10:10:50;5.32;;;3.20;;
56728;SDS011;42612;52.232;7.560;2023-03-01T10:14:21;7.00;;;3.63;;
56728;SDS011;42612;52.232;7.560;2023-03-01T10:19:32;4.63;;;3.05;;
56728;SDS011;42612;52.232;7.560;2023-03-01T10:24:53;4.70;;;3.47;;
56728;SDS011;42612;52.232;7.560;2023-03-01T10:32:19;5.78;;;3.78;;
56728;SDS011;42612;52.232;7.560;2023-03-01T10:37:16;4.00;;;3.03;;
56728;SDS011;42612;52.232;7.560;2023-03-01T10:40:02;6.63;;;3.92;;
56728;SDS011;42612;52.232;7.560;2023-03-01T10:42:35;6.37;;;3.77;;
56728;SDS011;42612;52.232;7.560;2023-03-01T10:58:35;5.22;;;3.67;;
56728;SDS011;42612;52.232;7.560;2023-03-01T11:01:08;7.25;;;3.85;;
56728;SDS011;42612;52.232;7.560;2023-03-01T11:06:31;3.92;;;3.20;;
56728;SDS011;42612;52.232;7.560;2023-03-01T11:11:43;6.53;;;3.80;;
56728;SDS011;42612;52.232;7.560;2023-03-01T11:16:43;5.25;;;3.85;;
56728;SDS011;42612;52.232;7.560;2023-03-01T11:21:37;5.88;;;3.38;;
56728;SDS011;42612;52.232;7.560;2023-03-01T11:24:13;9.85;;;3.35;;
56728;SDS011;42612;52.232;7.560;2023-03-01T11:26:41;6.65;;;3.05;;
56728;SDS011;42612;52.232;7.560;2023-03-01T11:29:16;7.43;;;3.10;;
56728;SDS011;42612;52.232;7.560;2023-03-01T11:31:53;4.47;;;2.85;;
56728;SDS011;42612;52.232;7.560;2023-03-01T11:34:31;4.55;;;3.10;;
56728;SDS011;42612;52.232;7.560;2023-03-01T11:37:14;5.82;;;2.83;;
56728;SDS011;42612;52.232;7.560;2023-03-01T11:39:53;4.00;;;2.45;;
56728;SDS011;42612;52.232;7.560;2023-03-01T11:42:50;6.55;;;3.10;;
56728;SDS011;42612;52.232;7.560;2023-03-01T11:45:40;5.05;;;2.75;;
56728;SDS011;42612;52.232;7.560;2023-03-01T11:48:46;4.22;;;2.90;;
56728;SDS011;42612;52.232;7.560;2023-03-01T11:51:53;3.47;;;2.83;;
56728;SDS011;42612;52.232;7.560;2023-03-01T11:54:38;5.07;;;2.50;;
56728;SDS011;42612;52.232;7.560;2023-03-01T12:00:07;5.90;;;2.58;;
56728;SDS011;42612;52.232;7.560;2023-03-01T12:05:59;4.13;;;2.67;;
56728;SDS011;42612;52.232;7.560;2023-03-01T12:17:46;3.30;;;2.60;;
56728;SDS011;42612;52.232;7.560;2023-03-01T12:23:15;4.78;;;2.63;;
56728;SDS011;42612;52.232;7.560;2023-03-01T12:29:14;4.32;;;2.97;;
56728;SDS011;42612;52.232;7.560;2023-03-01T12:35:11;7.43;;;2.95;;
56728;SDS011;42612;52.232;7.560;2023-03-01T12:37:58;3.83;;;2.65;;
56728;SDS011;42612;52.232;7.560;2023-03-01T12:43:17;5.30;;;2.83;;
56728;SDS011;42612;52.232;7.560;2023-03-01T12:51:43;3.35;;;2.45;;
56728;SDS011;42612;52.232;7.560;2023-03-01T12:54:21;6.00;;;3.25;;
56728;SDS011;42612;52.232;7.560;2023-03-01T12:56:53;3.35;;;2.53;;
56728;SDS011;42612;52.232;7.560;2023-03-01T12:59:35;4.22;;;2.97;;
56728;SDS011;42612;52.232;7.560;2023-03-01T13:02:38;3.05;;;2.47;;
56728;SDS011;42612;52.232;7.560;2023-03-01T13:05:34;2.88;;;2.42;;
56728;SDS011;42612;52.232;7.560;2023-03-01T13:08:19;5.47;;;2.25;;
56728;SDS011;42612;52.232;7.560;2023-03-01T13:11:01;4.53;;;2.65;;
56728;SDS011;42612;52.232;7.560;2023-03-01T13:13:30;3.05;;;2.47;;
56728;SDS011;42612;52.232;7.560;2023-03-01T13:15:56;4.00;;;2.08;;
56728;SDS011;42612;52.232;7.560;2023-03-01T13:20:50;4.15;;;2.58;;
56728;SDS011;42612;52.232;7.560;2023-03-01T13:31:56;3.78;;;2.53;;
56728;SDS011;42612;52.232;7.560;2023-03-01T13:33:57;2.33;;;2.13;;
56728;SDS011;42612;52.232;7.560;2023-03-01T13:41:53;3.38;;;2.28;;
56728;SDS011;42612;52.232;7.560;2023-03-01T13:44:30;4.72;;;2.50;;
56728;SDS011;42612;52.232;7.560;2023-03-01T13:49:55;3.13;;;2.28;;
56728;SDS011;42612;52.232;7.560;2023-03-01T13:52:37;5.18;;;3.67;;
56728;SDS011;42612;52.232;7.560;2023-03-01T13:55:26;4.43;;;3.25;;
56728;SDS011;42612;52.232;7.560;2023-03-01T14:03:53;3.65;;;2.35;;
56728;SDS011;42612;52.232;7.560;2023-03-01T14:06:24;2.10;;;1.75;;
56728;SDS011;42612;52.232;7.560;2023-03-01T14:17:58;3.30;;;2.20;;
56728;SDS011;42612;52.232;7.560;2023-03-01T14:20:44;2.30;;;2.10;;
56728;SDS011;42612;52.232;7.560;2023-03-01T14:23:17;3.38;;;2.42;;
56728;SDS011;42612;52.232;7.560;2023-03-01T14:25:50;2.30;;;2.10;;
56728;SDS011;42612;52.232;7.560;2023-03-01T14:30:50;3.22;;;1.88;;
56728;SDS011;42612;52.232;7.560;2023-03-01T14:36:11;2.80;;;2.22;;
56728;SDS011;42612;52.232;7.560;2023-03-01T14:38:42;4.28;;;2.45;;
56728;SDS011;42612;52.232;7.560;2023-03-01T14:41:19;3.42;;;2.10;;
56728;SDS011;42612;52.232;7.560;2023-03-01T14:43:50;3.08;;;2.50;;
56728;SDS011;42612;52.232;7.560;2023-03-01T14:46:21;3.10;;;2.15;;
56728;SDS011;42612;52.232;7.560;2023-03-01T14:48:53;2.22;;;2.03;;
56728;SDS011;42612;52.232;7.560;2023-03-01T14:51:29;2.65;;;1.90;;
56728;SDS011;42612;52.232;7.560;2023-03-01T14:54:00;2.88;;;1.88;;
56728;SDS011;42612;52.232;7.560;2023-03-01T14:56:26;2.97;;;2.03;;
56728;SDS011;42612;52.232;7.560;2023-03-01T14:58:53;3.17;;;2.00;;
56728;SDS011;42612;52.232;7.560;2023-03-01T15:01:23;2.83;;;2.10;;
56728;SDS011;42612;52.232;7.560;2023-03-01T15:03:49;21.20;;;3.58;;
56728;SDS011;42612;52.232;7.560;2023-03-01T15:06:17;9.32;;;2.45;;
56728;SDS011;42612;52.232;7.560;2023-03-01T15:08:46;16.42;;;2.63;;
56728;SDS011;42612;52.232;7.560;2023-03-01T15:11:17;13.95;;;2.60;;
56728;SDS011;42612;52.232;7.560;2023-03-01T15:13:55;3.42;;;2.22;;
56728;SDS011;42612;52.232;7.560;2023-03-01T15:16:23;5.85;;;1.95;;
56728;SDS011;42612;52.232;7.560;2023-03-01T15:18:54;2.03;;;1.85;;
56728;SDS011;42612;52.232;7.560;2023-03-01T15:26:44;2.92;;;2.00;;
56728;SDS011;42612;52.232;7.560;2023-03-01T15:34:38;2.47;;;2.22;;
56728;SDS011;42612;52.232;7.560;2023-03-01T15:37:35;3.22;;;1.98;;
56728;SDS011;42612;52.232;7.560;2023-03-01T15:42:49;2.95;;;1.90;;
56728;SDS011;42612;52.232;7.560;2023-03-01T15:47:52;3.80;;;2.20;;
56728;SDS011;42612;52.232;7.560;2023-03-01T15:50:40;4.10;;;2.25;;
56728;SDS011;42612;52.232;7.560;2023-03-01T15:53:12;3.17;;;2.25;;
56728;SDS011;42612;52.232;7.560;2023-03-01T15:55:42;2.85;;;2.13;;
56728;SDS011;42612;52.232;7.560;2023-03-01T15:58:20;2.40;;;2.05;;
56728;SDS011;42612;52.232;7.560;2023-03-01T16:00:48;4.18;;;2.08;;
56728;SDS011;42612;52.232;7.560;2023-03-01T16:03:20;6.68;;;2.35;;
56728;SDS011;42612;52.232;7.560;2023-03-01T16:05:50;7.43;;;2.03;;
56728;SDS011;42612;52.232;7.560;2023-03-01T16:08:17;2.85;;;2.13;;
56728;SDS011;42612;52.232;7.560;2023-03-01T16:10:43;6.88;;;2.13;;
56728;SDS011;42612;52.232;7.560;2023-03-01T16:13:10;6.47;;;2.22;;
56728;SDS011;42612;52.232;7.560;2023-03-01T16:15:36;7.57;;;2.93;;
56728;SDS011;42612;52.232;7.560;2023-03-01T16:18:04;4.63;;;2.05;;
56728;SDS011;42612;52.232;7.560;2023-03-01T16:20:31;7.70;;;2.33;;
56728;SDS011;42612;52.232;7.560;2023-03-01T16:22:58;4.85;;;2.55;;
56728;SDS011;42612;52.232;7.560;2023-03-01T16:25:25;7.95;;;2.20;;
56728;SDS011;42612;52.232;7.560;2023-03-01T16:27:52;4.55;;;2.13;;
56728;SDS011;42612;52.232;7.560;2023-03-01T16:30:19;5.90;;;2.20;;
56728;SDS011;42612;52.232;7.560;2023-03-01T16:32:47;6.45;;;2.00;;
56728;SDS011;42612;52.232;7.560;2023-03-01T16:35:14;4.10;;;1.98;;
56728;SDS011;42612;52.232;7.560;2023-03-01T16:37:42;2.20;;;1.92;;
56728;SDS011;42612;52.232;7.560;2023-03-01T16:42:50;4.65;;;2.08;;
56728;SDS011;42612;52.232;7.560;2023-03-01T16:45:17;3.38;;;2.45;;
56728;SDS011;42612;52.232;7.560;2023-03-01T16:47:43;10.45;;;2.60;;
56728;SDS011;42612;52.232;7.560;2023-03-01T16:50:10;4.35;;;1.95;;
56728;SDS011;42612;52.232;7.560;2023-03-01T16:52:36;3.40;;;1.95;;
56728;SDS011;42612;52.232;7.560;2023-03-01T16:55:03;2.08;;;1.80;;
56728;SDS011;42612;52.232;7.560;2023-03-01T16:57:33;2.75;;;1.90;;
56728;SDS011;42612;52.232;7.560;2023-03-01T16:59:59;4.55;;;2.00;;
56728;SDS011;42612;52.232;7.560;2023-03-01T17:02:32;6.25;;;2.42;;
56728;SDS011;42612;52.232;7.560;2023-03-01T17:04:59;2.70;;;2.33;;
56728;SDS011;42612;52.232;7.560;2023-03-01T17:07:24;3.50;;;2.03;;
56728;SDS011;42612;52.232;7.560;2023-03-01T17:09:50;5.43;;;1.85;;
56728;SDS011;42612;52.232;7.560;2023-03-01T17:12:16;3.28;;;1.92;;
56728;SDS011;42612;52.232;7.560;2023-03-01T17:14:42;3.47;;;1.92;;
56728;SDS011;42612;52.232;7.560;2023-03-01T17:17:08;2.75;;;2.10;;
56728;SDS011;42612;52.232;7.560;2023-03-01T17:19:35;7.55;;;2.20;;
56728;SDS011;42612;52.232;7.560;2023-03-01T17:22:05;3.88;;;2.25;;
56728;SDS011;42612;52.232;7.560;2023-03-01T17:24:32;2.70;;;2.10;;
56728;SDS011;42612;52.232;7.560;2023-03-01T17:26:59;2.38;;;1.85;;
56728;SDS011;42612;52.232;7.560;2023-03-01T17:29:25;3.05;;;2.20;;
56728;SDS011;42612;52.232;7.560;2023-03-01T17:31:51;2.65;;;2.13;;
56728;SDS011;42612;52.232;7.560;2023-03-01T17:34:18;4.15;;;2.25;;
56728;SDS011;42612;52.232;7.560;2023-03-01T17:36:44;2.45;;;1.67;;
56728;SDS011;42612;52.232;7.560;2023-03-01T17:39:11;3.13;;;2.05;;
56728;SDS011;42612;52.232;7.560;2023-03-01T17:41:37;3.78;;;2.40;;
56728;SDS011;42612;52.232;7.560;2023-03-01T17:44:03;4.95;;;2.58;;
56728;SDS011;42612;52.232;7.560;2023-03-01T17:46:29;4.55;;;2.38;;
56728;SDS011;42612;52.232;7.560;2023-03-01T17:48:55;4.85;;;2.60;;
56728;SDS011;42612;52.232;7.560;2023-03-01T17:51:20;2.78;;;1.75;;
56728;SDS011;42612;52.232;7.560;2023-03-01T17:53:46;3.20;;;2.13;;